Time,TemperatureF,DewpointF,PressureIn,WindDirection,WindDirectionDegrees,WindSpeedMPH,WindSpeedGustMPH,Humidity,HourlyPrecipIn,Conditions,Clouds,dailyrainin,SoftwareType,DateUTC
2013-07-27 00:01:00,83.9,87.4,29.98,WSW,247,0.0,0.7,75,0.00,,,0.00,,2013-07-27 04:01:00,
2013-07-27 00:02:00,84.0,87.4,29.98,WSW,247,0.0,0.0,75,0.00,,,0.00,,2013-07-27 04:02:00,
2013-07-27 00:07:00,84.0,87.3,29.98,SW,225,1.8,2.0,74,0.00,,,0.00,,2013-07-27 04:07:00,
2013-07-27 00:12:00,84.2,87.3,29.98,SSW,202,3.1,3.6,74,0.00,,,0.00,,2013-07-27 04:12:00,
2013-07-27 00:17:00,84.2,87.3,29.98,SW,225,3.4,4.3,75,0.00,,,0.00,,2013-07-27 04:17:00,
2013-07-27 00:22:00,84.0,87.3,29.98,West,270,0.7,1.8,75,0.00,,,0.00,,2013-07-27 04:22:00,
2013-07-27 00:27:00,84.0,87.4,29.98,West,270,1.3,4.9,75,0.00,,,0.00,,2013-07-27 04:27:00,
2013-07-27 00:32:00,84.0,87.4,29.97,West,270,3.1,3.1,75,0.00,,,0.00,,2013-07-27 04:32:00,
2013-07-27 00:37:00,83.9,87.3,29.97,SW,225,2.9,3.4,76,0.00,,,0.00,,2013-07-27 04:37:00,
2013-07-27 00:42:00,84.0,87.3,29.97,West,270,3.1,4.5,76,0.00,,,0.00,,2013-07-27 04:42:00,
2013-07-27 00:47:00,83.8,87.3,29.97,WSW,247,2.7,4.5,76,0.00,,,0.00,,2013-07-27 04:47:00,
2013-07-27 00:52:00,83.8,87.3,29.97,WSW,247,3.1,4.0,76,0.00,,,0.00,,2013-07-27 04:52:00,
2013-07-27 00:57:00,83.8,87.3,29.97,SW,225,3.8,4.5,76,0.00,,,0.00,,2013-07-27 04:57:00,
2013-07-27 01:02:00,83.7,87.3,29.97,SW,225,4.3,4.3,77,0.00,,,0.00,,2013-07-27 05:02:00,
2013-07-27 01:07:00,83.7,87.2,29.97,West,270,0.0,0.0,76,0.00,,,0.00,,2013-07-27 05:07:00,
2013-07-27 01:12:00,83.7,87.2,29.97,SSW,202,0.9,3.4,76,0.00,,,0.00,,2013-07-27 05:12:00,
2013-07-27 01:17:00,83.6,87.3,29.97,SW,225,4.7,6.3,77,0.00,,,0.00,,2013-07-27 05:17:00,
2013-07-27 01:22:00,83.6,87.3,29.97,West,270,3.4,5.1,77,0.00,,,0.00,,2013-07-27 05:22:00,
2013-07-27 01:27:00,83.5,87.2,29.96,West,270,6.3,6.5,77,0.00,,,0.00,,2013-07-27 05:27:00,
2013-07-27 01:32:00,83.5,87.3,29.96,WSW,247,0.9,1.8,76,0.00,,,0.00,,2013-07-27 05:32:00,
2013-07-27 01:37:00,83.6,87.2,29.96,WSW,247,4.5,5.4,76,0.00,,,0.00,,2013-07-27 05:37:00,
2013-07-27 01:42:00,83.5,87.2,29.96,West,270,3.1,4.5,76,0.00,,,0.00,,2013-07-27 05:42:00,
2013-07-27 01:47:00,83.4,87.2,29.96,WSW,247,4.5,5.4,76,0.00,,,0.00,,2013-07-27 05:47:00,
2013-07-27 01:52:00,83.4,87.2,29.95,SW,225,5.6,5.6,76,0.00,,,0.00,,2013-07-27 05:52:00,
2013-07-27 01:57:00,83.3,87.2,29.95,SW,225,4.9,6.7,76,0.00,,,0.00,,2013-07-27 05:57:00,
2013-07-27 02:02:00,83.2,87.2,29.95,SSW,202,3.8,3.8,76,0.00,,,0.00,,2013-07-27 06:02:00,
2013-07-27 02:07:00,83.3,87.2,29.95,SW,225,5.4,6.7,76,0.00,,,0.00,,2013-07-27 06:07:00,
2013-07-27 02:12:00,83.2,87.1,29.95,SW,225,3.6,3.6,76,0.00,,,0.00,,2013-07-27 06:12:00,
2013-07-27 02:17:00,83.1,87.1,29.95,SSW,202,3.6,6.0,76,0.00,,,0.00,,2013-07-27 06:17:00,
2013-07-27 02:23:00,83.1,87.2,29.95,SSW,202,4.3,5.1,76,0.00,,,0.00,,2013-07-27 06:23:00,
2013-07-27 02:28:00,83.0,87.2,29.95,WSW,247,4.0,7.2,77,0.00,,,0.00,,2013-07-27 06:28:00,
2013-07-27 02:33:00,83.0,87.1,29.95,SW,225,2.9,3.8,77,0.00,,,0.00,,2013-07-27 06:33:00,
2013-07-27 02:38:00,82.9,87.1,29.94,SW,225,4.7,5.1,77,0.00,,,0.00,,2013-07-27 06:38:00,
2013-07-27 02:43:00,82.9,87.1,29.95,SW,225,1.1,1.1,77,0.00,,,0.00,,2013-07-27 06:43:00,
2013-07-27 02:48:00,82.9,87.1,29.94,West,270,2.7,3.8,77,0.00,,,0.00,,2013-07-27 06:48:00,
2013-07-27 02:53:00,82.9,87.1,29.94,West,270,1.8,2.2,77,0.00,,,0.00,,2013-07-27 06:53:00,
2013-07-27 02:58:00,83.0,87.1,29.94,West,270,2.9,4.7,76,0.00,,,0.00,,2013-07-27 06:58:00,
2013-07-27 03:03:00,83.0,87.0,29.94,West,270,4.5,4.9,76,0.00,,,0.00,,2013-07-27 07:03:00,
2013-07-27 03:08:00,83.0,87.0,29.94,West,270,3.4,4.3,76,0.00,,,0.00,,2013-07-27 07:08:00,
2013-07-27 03:13:00,83.0,87.0,29.94,West,270,2.7,2.7,76,0.00,,,0.00,,2013-07-27 07:13:00,
2013-07-27 03:18:00,83.0,87.1,29.94,WSW,247,3.6,3.6,76,0.00,,,0.00,,2013-07-27 07:18:00,
2013-07-27 03:23:00,83.0,87.0,29.94,West,270,3.1,3.1,76,0.00,,,0.00,,2013-07-27 07:23:00,
2013-07-27 03:28:00,82.9,87.0,29.94,West,270,1.6,4.0,76,0.00,,,0.00,,2013-07-27 07:28:00,
2013-07-27 03:33:00,82.8,87.0,29.94,West,270,0.0,0.0,76,0.00,,,0.00,,2013-07-27 07:33:00,
2013-07-27 03:38:00,82.8,86.9,29.94,WSW,247,3.1,3.4,76,0.00,,,0.00,,2013-07-27 07:38:00,
2013-07-27 03:43:00,82.8,86.9,29.94,SW,225,0.9,0.9,76,0.00,,,0.00,,2013-07-27 07:43:00,
2013-07-27 03:48:00,82.7,86.9,29.93,SW,225,4.0,6.0,76,0.00,,,0.00,,2013-07-27 07:48:00,
2013-07-27 03:53:00,82.7,86.9,29.93,SW,225,3.6,4.3,76,0.00,,,0.00,,2013-07-27 07:53:00,
2013-07-27 03:58:00,82.6,86.9,29.93,WSW,247,3.6,4.0,77,0.00,,,0.00,,2013-07-27 07:58:00,
2013-07-27 04:03:00,82.6,87.0,29.93,West,270,1.8,1.8,76,0.00,,,0.00,,2013-07-27 08:03:00,
2013-07-27 04:09:00,82.6,86.9,29.93,WSW,247,4.9,4.9,77,0.00,,,0.00,,2013-07-27 08:09:00,
2013-07-27 04:14:00,82.6,86.9,29.93,WSW,247,3.4,3.4,77,0.00,,,0.00,,2013-07-27 08:14:00,
2013-07-27 04:19:00,82.6,86.9,29.93,West,270,3.4,4.0,77,0.00,,,0.00,,2013-07-27 08:19:00,
2013-07-27 04:24:00,82.6,86.9,29.92,West,270,3.1,3.6,77,0.00,,,0.00,,2013-07-27 08:24:00,
2013-07-27 04:29:00,82.6,86.9,29.92,West,270,3.1,4.7,77,0.00,,,0.00,,2013-07-27 08:29:00,
2013-07-27 04:34:00,82.5,86.8,29.92,West,270,1.8,2.0,77,0.00,,,0.00,,2013-07-27 08:34:00,
2013-07-27 04:39:00,82.5,86.8,29.92,West,270,1.6,3.6,77,0.00,,,0.00,,2013-07-27 08:39:00,
2013-07-27 04:44:00,82.6,86.8,29.92,WNW,292,1.1,1.1,77,0.00,,,0.00,,2013-07-27 08:44:00,
2013-07-27 04:49:00,82.7,86.8,29.92,West,270,0.0,0.9,77,0.00,,,0.00,,2013-07-27 08:49:00,
2013-07-27 04:54:00,82.7,86.8,29.92,WNW,292,0.0,0.0,77,0.00,,,0.00,,2013-07-27 08:54:00,
2013-07-27 04:59:00,82.7,86.8,29.92,NW,315,2.9,3.6,77,0.00,,,0.00,,2013-07-27 08:59:00,
2013-07-27 05:04:00,82.6,86.8,29.93,NW,315,3.4,3.4,77,0.00,,,0.00,,2013-07-27 09:04:00,
2013-07-27 05:09:00,82.7,86.8,29.93,WNW,292,4.0,4.9,77,0.00,,,0.00,,2013-07-27 09:09:00,
2013-07-27 05:14:00,82.6,86.8,29.93,NW,315,1.3,1.6,77,0.00,,,0.00,,2013-07-27 09:14:00,
2013-07-27 05:19:00,82.7,86.8,29.93,NW,315,0.0,0.0,77,0.00,,,0.00,,2013-07-27 09:19:00,
2013-07-27 05:24:00,82.7,86.8,29.94,WNW,292,2.0,2.2,77,0.00,,,0.00,,2013-07-27 09:24:00,
2013-07-27 05:29:00,82.5,86.8,29.94,SW,225,3.6,4.5,77,0.00,,,0.00,,2013-07-27 09:29:00,
2013-07-27 05:34:00,82.4,86.8,29.94,SSW,202,2.7,2.7,77,0.00,,,0.00,,2013-07-27 09:34:00,
2013-07-27 05:39:00,82.3,86.8,29.94,SW,225,3.1,4.7,78,0.00,,,0.00,,2013-07-27 09:39:00,
2013-07-27 05:44:00,82.2,86.8,29.95,SSW,202,2.7,4.0,78,0.00,,,0.00,,2013-07-27 09:44:00,
2013-07-27 05:49:00,82.1,86.8,29.95,SSW,202,2.9,3.6,78,0.00,,,0.00,,2013-07-27 09:49:00,
2013-07-27 05:54:00,82.1,86.8,29.95,SSW,202,2.0,3.4,78,0.00,,,0.00,,2013-07-27 09:54:00,
2013-07-27 05:59:00,82.1,86.8,29.95,WSW,247,0.0,0.9,78,0.00,,,0.00,,2013-07-27 09:59:00,
2013-07-27 06:04:00,82.1,86.8,29.95,WSW,247,2.0,2.7,78,0.00,,,0.00,,2013-07-27 10:04:00,
2013-07-27 06:09:00,82.1,86.7,29.95,SW,225,0.0,0.0,78,0.00,,,0.00,,2013-07-27 10:09:00,
2013-07-27 06:15:00,82.2,86.8,29.95,South,180,5.4,5.4,78,0.00,,,0.00,,2013-07-27 10:15:00,
2013-07-27 06:20:00,82.2,86.8,29.95,South,180,3.6,4.9,78,0.00,,,0.00,,2013-07-27 10:20:00,
2013-07-27 06:25:00,82.2,86.7,29.96,SSE,157,4.5,5.8,79,0.00,,,0.00,,2013-07-27 10:25:00,
2013-07-27 06:30:00,82.1,86.7,29.96,South,180,4.3,4.7,79,0.00,,,0.00,,2013-07-27 10:30:00,
2013-07-27 06:35:00,82.1,86.7,29.96,South,180,4.3,4.3,79,0.00,,,0.00,,2013-07-27 10:35:00,
2013-07-27 06:40:00,82.1,86.7,29.96,SSW,202,3.4,4.5,79,0.00,,,0.00,,2013-07-27 10:40:00,
2013-07-27 06:45:00,82.0,86.7,29.96,South,180,0.9,0.9,78,0.00,,,0.00,,2013-07-27 10:45:00,
2013-07-27 06:50:00,81.9,86.7,29.96,SW,225,3.1,4.0,79,0.00,,,0.00,,2013-07-27 10:50:00,
2013-07-27 06:55:00,81.9,86.7,29.96,SW,225,0.0,0.0,79,0.00,,,0.00,,2013-07-27 10:55:00,
2013-07-27 07:00:00,81.9,86.7,29.96,WSW,247,0.0,0.0,79,0.00,,,0.00,,2013-07-27 11:00:00,
2013-07-27 07:05:00,82.2,86.7,29.97,West,270,0.0,0.0,79,0.00,,,0.00,,2013-07-27 11:05:00,
2013-07-27 07:10:00,82.2,86.7,29.97,West,270,0.0,0.0,79,0.00,,,0.00,,2013-07-27 11:10:00,
2013-07-27 07:15:00,82.3,86.7,29.97,West,270,0.0,2.0,79,0.00,,,0.00,,2013-07-27 11:15:00,
2013-07-27 07:21:00,82.3,86.7,29.97,West,270,1.3,2.9,79,0.00,,,0.00,,2013-07-27 11:21:00,
2013-07-27 07:26:00,82.6,86.7,29.97,West,270,0.0,0.0,79,0.00,,,0.00,,2013-07-27 11:26:00,
2013-07-27 07:31:00,83.5,86.7,29.97,NW,315,2.2,4.0,80,0.00,,,0.00,,2013-07-27 11:31:00,
2013-07-27 07:36:00,84.9,86.7,29.97,NW,315,4.9,4.9,79,0.00,,,0.00,,2013-07-27 11:36:00,
2013-07-27 07:41:00,86.2,86.7,29.96,WNW,292,3.4,5.6,77,0.00,,,0.00,,2013-07-27 11:41:00,
2013-07-27 07:46:00,87.4,86.7,29.96,WNW,292,0.4,1.6,77,0.00,,,0.00,,2013-07-27 11:46:00,
2013-07-27 07:51:00,87.9,86.7,29.96,NW,315,3.1,3.8,74,0.00,,,0.00,,2013-07-27 11:51:00,
2013-07-27 07:56:00,88.1,86.7,29.96,West,270,1.3,1.3,72,0.00,,,0.00,,2013-07-27 11:56:00,
2013-07-27 08:01:00,88.1,86.8,29.97,WNW,292,2.9,4.0,71,0.00,,,0.00,,2013-07-27 12:01:00,
2013-07-27 08:06:00,87.8,86.8,29.97,West,270,0.0,0.0,71,0.00,,,0.00,,2013-07-27 12:06:00,
2013-07-27 08:11:00,87.3,86.9,29.97,SW,225,0.0,0.0,70,0.00,,,0.00,,2013-07-27 12:11:00,
2013-07-27 08:16:00,87.0,86.8,29.97,SSW,202,2.9,2.9,70,0.00,,,0.00,,2013-07-27 12:16:00,
2013-07-27 08:21:00,86.8,86.9,29.97,South,180,2.0,2.2,70,0.00,,,0.00,,2013-07-27 12:21:00,
2013-07-27 08:26:00,86.7,86.9,29.97,SW,225,0.0,0.0,70,0.00,,,0.00,,2013-07-27 12:26:00,
2013-07-27 08:31:00,86.7,86.9,29.97,SSW,202,0.0,2.0,70,0.00,,,0.00,,2013-07-27 12:31:00,
2013-07-27 08:36:00,86.7,87.0,29.97,South,180,2.9,4.0,70,0.00,,,0.00,,2013-07-27 12:36:00,
2013-07-27 08:42:00,86.5,87.0,29.97,SSW,202,2.7,3.6,70,0.00,,,0.00,,2013-07-27 12:42:00,
2013-07-27 08:47:00,86.2,87.0,29.97,WSW,247,2.9,3.8,70,0.00,,,0.00,,2013-07-27 12:47:00,
2013-07-27 08:52:00,86.3,87.1,29.97,South,180,0.0,3.8,71,0.00,,,0.00,,2013-07-27 12:52:00,
2013-07-27 08:57:00,86.7,87.1,29.97,SW,225,3.1,4.0,71,0.00,,,0.00,,2013-07-27 12:57:00,
2013-07-27 09:02:00,86.7,87.2,29.97,SW,225,2.9,5.4,70,0.00,,,0.00,,2013-07-27 13:02:00,
2013-07-27 09:07:00,86.6,87.1,29.97,WSW,247,0.0,3.1,70,0.00,,,0.00,,2013-07-27 13:07:00,
2013-07-27 09:12:00,86.6,87.1,29.97,SSW,202,0.0,2.9,70,0.00,,,0.00,,2013-07-27 13:12:00,
2013-07-27 09:17:00,87.0,87.2,29.97,SSW,202,4.0,6.3,70,0.00,,,0.00,,2013-07-27 13:17:00,
2013-07-27 09:22:00,87.4,87.2,29.97,South,180,0.0,4.0,70,0.00,,,0.00,,2013-07-27 13:22:00,
2013-07-27 09:27:00,88.1,87.3,29.97,South,180,0.0,0.0,71,0.00,,,0.00,,2013-07-27 13:27:00,
2013-07-27 09:32:00,88.9,87.2,29.97,SW,225,3.6,4.3,69,0.00,,,0.00,,2013-07-27 13:32:00,
2013-07-27 09:37:00,89.0,87.2,29.97,WNW,292,4.0,4.9,67,0.00,,,0.00,,2013-07-27 13:37:00,
2013-07-27 09:42:00,89.4,87.2,29.97,NW,315,0.0,2.5,68,0.00,,,0.00,,2013-07-27 13:42:00,
2013-07-27 09:47:00,90.1,87.3,29.97,WSW,247,1.6,2.0,67,0.00,,,0.00,,2013-07-27 13:47:00,
2013-07-27 09:52:00,90.2,87.3,29.97,WNW,292,1.8,4.0,66,0.00,,,0.00,,2013-07-27 13:52:00,
2013-07-27 09:57:00,90.6,87.2,29.97,NW,315,3.4,4.0,65,0.00,,,0.00,,2013-07-27 13:57:00,
2013-07-27 10:02:00,90.8,87.4,29.97,West,270,4.0,6.7,63,0.00,,,0.00,,2013-07-27 14:02:00,
2013-07-27 10:07:00,90.3,87.3,29.97,West,270,0.0,0.0,63,0.00,,,0.00,,2013-07-27 14:07:00,
2013-07-27 10:12:00,90.7,87.3,29.98,West,270,0.0,1.3,63,0.00,,,0.00,,2013-07-27 14:12:00,
2013-07-27 10:17:00,91.1,87.3,29.98,NW,315,5.4,5.4,62,0.00,,,0.00,,2013-07-27 14:17:00,
2013-07-27 10:23:00,91.6,87.4,29.98,NNW,337,0.0,0.0,63,0.00,,,0.00,,2013-07-27 14:23:00,
2013-07-27 10:28:00,92.3,87.5,29.98,NNW,337,0.0,0.0,63,0.00,,,0.00,,2013-07-27 14:28:00,
2013-07-27 10:33:00,92.9,87.5,29.98,WNW,292,2.2,7.4,60,0.00,,,0.00,,2013-07-27 14:33:00,
2013-07-27 10:38:00,92.7,87.5,29.98,WNW,292,1.1,2.2,59,0.00,,,0.00,,2013-07-27 14:38:00,
2013-07-27 10:43:00,92.8,87.4,29.98,West,270,1.1,4.0,59,0.00,,,0.00,,2013-07-27 14:43:00,
2013-07-27 10:48:00,92.8,87.5,29.98,WNW,292,3.1,6.3,58,0.00,,,0.00,,2013-07-27 14:48:00,
2013-07-27 10:53:00,92.5,87.6,29.98,NW,315,0.0,3.8,58,0.00,,,0.00,,2013-07-27 14:53:00,
2013-07-27 10:58:00,93.0,87.6,29.98,West,270,1.6,2.0,59,0.00,,,0.00,,2013-07-27 14:58:00,
2013-07-27 11:03:00,93.1,87.6,29.98,WNW,292,0.0,4.9,57,0.00,,,0.00,,2013-07-27 15:03:00,
2013-07-27 11:08:00,92.8,87.6,29.98,WNW,292,3.8,4.0,57,0.00,,,0.00,,2013-07-27 15:08:00,
2013-07-27 11:13:00,93.1,87.7,29.97,NW,315,0.0,0.0,58,0.00,,,0.00,,2013-07-27 15:13:00,
2013-07-27 11:18:00,93.4,87.8,29.97,West,270,2.2,5.4,56,0.00,,,0.00,,2013-07-27 15:18:00,
2013-07-27 11:23:00,92.9,87.7,29.97,SW,225,2.7,5.4,54,0.00,,,0.00,,2013-07-27 15:23:00,
2013-07-27 11:28:00,92.5,87.7,29.97,SSW,202,2.5,2.9,55,0.00,,,0.00,,2013-07-27 15:28:00,
2013-07-27 11:33:00,92.7,87.8,29.97,South,180,2.5,4.0,55,0.00,,,0.00,,2013-07-27 15:33:00,
2013-07-27 11:38:00,92.8,87.9,29.97,SE,135,0.0,0.0,55,0.00,,,0.00,,2013-07-27 15:38:00,
2013-07-27 11:43:00,93.3,87.9,29.97,SW,225,0.0,1.3,56,0.00,,,0.00,,2013-07-27 15:43:00,
2013-07-27 11:48:00,93.6,88.0,29.97,South,180,6.0,6.3,53,0.00,,,0.00,,2013-07-27 15:48:00,
2013-07-27 11:53:00,93.4,87.9,29.97,South,180,2.9,5.4,53,0.00,,,0.00,,2013-07-27 15:53:00,
2013-07-27 11:59:00,93.2,87.9,29.97,South,180,3.4,5.8,53,0.00,,,0.00,,2013-07-27 15:59:00,
2013-07-27 12:04:00,93.2,88.0,29.97,ESE,112,3.1,3.8,53,0.00,,,0.00,,2013-07-27 16:04:00,
2013-07-27 12:09:00,93.7,88.0,29.97,East,90,0.0,0.0,54,0.00,,,0.00,,2013-07-27 16:09:00,
2013-07-27 12:14:00,93.6,88.1,29.97,WSW,247,0.0,4.7,52,0.00,,,0.00,,2013-07-27 16:14:00,
2013-07-27 12:19:00,93.6,88.2,29.97,West,270,1.6,2.2,52,0.00,,,0.00,,2013-07-27 16:19:00,
2013-07-27 12:24:00,93.6,88.3,29.97,SSE,157,0.0,7.6,51,0.00,,,0.00,,2013-07-27 16:24:00,
2013-07-27 12:29:00,93.6,88.3,29.97,SSW,202,1.3,5.6,50,0.00,,,0.00,,2013-07-27 16:29:00,
2013-07-27 12:34:00,93.7,88.3,29.97,SSW,202,2.0,4.5,50,0.00,,,0.00,,2013-07-27 16:34:00,
2013-07-27 12:39:00,94.2,88.3,29.97,SSE,157,0.0,0.0,50,0.00,,,0.00,,2013-07-27 16:39:00,
2013-07-27 12:44:00,94.9,88.3,29.97,SSE,157,1.6,3.6,49,0.00,,,0.00,,2013-07-27 16:44:00,
2013-07-27 12:49:00,95.2,88.3,29.97,SE,135,0.0,0.0,48,0.00,,,0.00,,2013-07-27 16:49:00,
2013-07-27 12:54:00,95.9,88.3,29.96,NNW,337,0.0,2.9,49,0.00,,,0.00,,2013-07-27 16:54:00,
2013-07-27 12:59:00,95.9,88.3,29.96,ESE,112,10.1,12.8,52,0.00,,,0.00,,2013-07-27 16:59:00,
2013-07-27 13:04:00,94.4,88.0,29.96,SE,135,11.0,13.6,54,0.00,,,0.00,,2013-07-27 17:04:00,
2013-07-27 13:09:00,93.1,87.9,29.96,South,180,6.3,6.9,56,0.00,,,0.00,,2013-07-27 17:09:00,
2013-07-27 13:14:00,91.8,87.9,29.96,SW,225,6.9,13.9,54,0.00,,,0.00,,2013-07-27 17:14:00,
2013-07-27 13:19:00,90.7,87.8,29.95,WNW,292,4.5,7.6,55,0.00,,,0.00,,2013-07-27 17:19:00,
2013-07-27 13:24:00,90.3,87.7,29.95,WNW,292,5.6,10.5,56,0.00,,,0.00,,2013-07-27 17:24:00,
2013-07-27 13:29:00,89.9,87.8,29.96,WNW,292,6.3,11.6,57,0.00,,,0.00,,2013-07-27 17:29:00,
2013-07-27 13:35:00,88.9,18.3,29.96,NNE,22,23.9,23.9,59,0.00,,,0.00,,2013-07-27 17:35:00,
2013-07-27 13:46:00,84.8,-6.4,29.98,ENE,67,11.4,11.4,70,0.00,,,0.00,,2013-07-27 17:46:00,
2013-07-27 13:51:00,83.7,-6.4,29.99,East,90,5.1,5.1,70,0.00,,,0.00,,2013-07-27 17:51:00,
2013-07-27 13:56:00,83.2,-6.4,29.99,NE,45,5.6,6.9,70,0.00,,,0.00,,2013-07-27 17:56:00,
2013-07-27 14:01:00,82.9,-6.4,30.00,NNE,22,2.2,12.1,70,0.00,,,0.00,,2013-07-27 18:01:00,
2013-07-27 14:06:00,82.6,-6.4,30.00,South,180,6.9,10.1,72,0.00,,,0.00,,2013-07-27 18:06:00,
2013-07-27 14:11:00,82.5,-6.4,30.00,East,90,3.1,6.0,73,0.00,,,0.00,,2013-07-27 18:11:00,
2013-07-27 14:16:00,82.4,-6.4,30.00,SW,225,0.0,0.0,72,0.00,,,0.00,,2013-07-27 18:16:00,
2013-07-27 14:21:00,82.4,90.8,30.00,WNW,292,2.5,3.4,73,0.00,,,0.00,,2013-07-27 18:21:00,
2013-07-27 14:27:00,82.4,90.8,29.99,WNW,292,0.0,0.0,73,0.00,,,0.00,,2013-07-27 18:27:00,
2013-07-27 14:32:00,82.5,60.6,29.99,NNW,337,3.4,5.1,73,0.00,,,0.00,,2013-07-27 18:32:00,
2013-07-27 14:37:00,82.3,60.6,29.99,WNW,292,4.0,5.6,75,0.00,,,0.00,,2013-07-27 18:37:00,
2013-07-27 14:42:00,81.9,83.7,29.99,West,270,2.5,5.8,76,0.00,,,0.00,,2013-07-27 18:42:00,
2013-07-27 14:47:00,81.7,83.7,29.99,West,270,2.5,5.6,77,0.00,,,0.00,,2013-07-27 18:47:00,
2013-07-27 14:52:00,81.4,83.7,29.98,West,270,0.4,3.8,76,0.00,,,0.00,,2013-07-27 18:52:00,
2013-07-27 14:57:00,81.2,83.7,29.97,WSW,247,0.0,0.0,76,0.00,,,0.00,,2013-07-27 18:57:00,
2013-07-27 15:02:00,81.4,83.7,29.97,West,270,1.1,1.6,76,0.00,,,0.00,,2013-07-27 19:02:00,
2013-07-27 15:07:00,81.4,78.8,29.97,SW,225,2.9,3.6,77,0.00,,,0.00,,2013-07-27 19:07:00,
2013-07-27 15:12:00,81.2,70.1,29.97,SW,225,1.6,4.0,77,0.00,,,0.00,,2013-07-27 19:12:00,
2013-07-27 15:17:00,81.0,70.1,29.96,SSW,202,6.5,6.5,79,0.00,,,0.00,,2013-07-27 19:17:00,
2013-07-27 15:22:00,80.9,60.9,29.96,South,180,5.8,9.2,79,0.00,,,0.00,,2013-07-27 19:22:00,
2013-07-27 15:27:00,80.8,60.7,29.96,South,180,6.5,7.8,80,0.00,,,0.00,,2013-07-27 19:27:00,
2013-07-27 15:32:00,80.7,60.7,29.96,SSE,157,4.0,5.6,80,0.00,,,0.00,,2013-07-27 19:32:00,
2013-07-27 15:37:00,80.7,43.3,29.96,SSE,157,3.6,5.1,80,0.00,,,0.00,,2013-07-27 19:37:00,
2013-07-27 15:42:00,80.7,43.3,29.95,South,180,5.6,6.7,81,0.00,,,0.00,,2013-07-27 19:42:00,
2013-07-27 15:47:00,80.6,43.3,29.95,SSW,202,0.9,2.0,80,0.00,,,0.00,,2013-07-27 19:47:00,
2013-07-27 15:52:00,80.7,43.3,29.94,WSW,247,0.0,0.0,80,0.00,,,0.00,,2013-07-27 19:52:00,
2013-07-27 15:57:00,80.9,43.3,29.94,WSW,247,0.0,0.0,80,0.00,,,0.00,,2013-07-27 19:57:00,
2013-07-27 16:02:00,81.1,43.3,29.94,SSE,157,2.5,3.4,80,0.00,,,0.00,,2013-07-27 20:02:00,
2013-07-27 16:07:00,81.0,43.3,29.94,SW,225,0.0,0.0,79,0.00,,,0.00,,2013-07-27 20:07:00,
2013-07-27 16:12:00,81.1,43.3,29.94,SW,225,0.0,0.0,79,0.00,,,0.00,,2013-07-27 20:12:00,
2013-07-27 16:17:00,81.1,43.3,29.94,SW,225,0.7,0.9,79,0.00,,,0.00,,2013-07-27 20:17:00,
2013-07-27 16:22:00,81.2,43.3,29.94,SSW,202,1.1,3.4,79,0.00,,,0.00,,2013-07-27 20:22:00,
2013-07-27 16:27:00,81.1,43.3,29.93,SSW,202,1.6,2.0,79,0.00,,,0.00,,2013-07-27 20:27:00,
2013-07-27 16:32:00,81.2,43.3,29.93,SSW,202,2.9,5.4,79,0.00,,,0.00,,2013-07-27 20:32:00,
2013-07-27 16:37:00,81.2,43.3,29.93,South,180,0.0,1.8,79,0.00,,,0.00,,2013-07-27 20:37:00,
2013-07-27 16:42:00,81.6,43.3,29.93,ESE,112,4.0,4.7,79,0.00,,,0.00,,2013-07-27 20:42:00,
2013-07-27 16:47:00,81.6,66.3,29.94,SE,135,1.8,3.1,79,0.00,,,0.00,,2013-07-27 20:47:00,
2013-07-27 16:52:00,81.7,37.2,29.94,ESE,112,1.8,3.6,79,0.00,,,0.00,,2013-07-27 20:52:00,
2013-07-27 16:57:00,81.7,88.6,29.94,SSE,157,4.0,5.8,80,0.00,,,0.00,,2013-07-27 20:57:00,
2013-07-27 17:02:00,81.6,88.6,29.94,South,180,6.7,8.5,81,0.00,,,0.00,,2013-07-27 21:02:00,
2013-07-27 17:07:00,81.5,88.6,29.94,South,180,6.7,7.6,80,0.00,,,0.00,,2013-07-27 21:07:00,
2013-07-27 17:12:00,81.5,40.7,29.94,South,180,6.0,6.5,81,0.00,,,0.00,,2013-07-27 21:12:00,
2013-07-27 17:17:00,81.5,37.2,29.94,SSW,202,4.9,4.9,80,0.00,,,0.00,,2013-07-27 21:17:00,
2013-07-27 17:22:00,81.6,37.2,29.94,SSW,202,4.5,6.0,79,0.00,,,0.00,,2013-07-27 21:22:00,
2013-07-27 17:27:00,81.7,37.2,29.94,South,180,5.8,10.5,79,0.00,,,0.00,,2013-07-27 21:27:00,
2013-07-27 17:32:00,81.6,37.2,29.94,South,180,5.6,5.8,79,0.00,,,0.00,,2013-07-27 21:32:00,
2013-07-27 17:37:00,81.6,37.2,29.94,SSW,202,6.9,7.2,80,0.00,,,0.00,,2013-07-27 21:37:00,
2013-07-27 17:42:00,81.6,37.2,29.94,SSW,202,3.8,6.0,80,0.00,,,0.00,,2013-07-27 21:42:00,
2013-07-27 17:47:00,81.7,37.2,29.93,SSW,202,5.1,7.8,80,0.00,,,0.00,,2013-07-27 21:47:00,
2013-07-27 17:52:00,81.7,37.2,29.93,SSW,202,5.6,5.6,80,0.00,,,0.00,,2013-07-27 21:52:00,
2013-07-27 17:57:00,81.6,37.2,29.93,SSW,202,8.3,12.3,79,0.00,,,0.00,,2013-07-27 21:57:00,
2013-07-27 18:02:00,81.6,37.2,29.93,South,180,7.4,9.4,80,0.00,,,0.00,,2013-07-27 22:02:00,
2013-07-27 18:07:00,81.6,37.2,29.93,South,180,7.4,10.1,79,0.00,,,0.00,,2013-07-27 22:07:00,
2013-07-27 18:12:00,81.6,37.2,29.93,South,180,5.8,7.8,80,0.00,,,0.00,,2013-07-27 22:12:00,
2013-07-27 18:17:00,81.7,37.2,29.93,SSW,202,8.7,8.7,79,0.00,,,0.00,,2013-07-27 22:17:00,
2013-07-27 18:22:00,81.8,37.2,29.94,SW,225,5.6,6.5,80,0.00,,,0.00,,2013-07-27 22:22:00,
2013-07-27 18:27:00,81.7,37.2,29.94,SW,225,3.4,5.1,80,0.00,,,0.00,,2013-07-27 22:27:00,
2013-07-27 18:32:00,81.8,37.2,29.94,WSW,247,4.3,4.3,80,0.00,,,0.00,,2013-07-27 22:32:00,
2013-07-27 18:37:00,81.8,40.4,29.93,West,270,3.1,4.0,80,0.00,,,0.00,,2013-07-27 22:37:00,
2013-07-27 18:42:00,81.8,37.2,29.94,WSW,247,1.8,1.8,80,0.00,,,0.00,,2013-07-27 22:42:00,
2013-07-27 18:47:00,81.9,37.2,29.94,West,270,3.1,5.8,80,0.00,,,0.00,,2013-07-27 22:47:00,
2013-07-27 18:52:00,81.9,37.2,29.94,West,270,0.0,3.6,80,0.00,,,0.00,,2013-07-27 22:52:00,
2013-07-27 18:57:00,82.1,37.2,29.94,West,270,2.5,3.8,79,0.00,,,0.00,,2013-07-27 22:57:00,
2013-07-27 19:02:00,82.2,37.2,29.95,SW,225,3.1,6.3,79,0.00,,,0.00,,2013-07-27 23:02:00,
2013-07-27 19:07:00,82.1,26.9,29.95,WSW,247,2.5,3.4,78,0.00,,,0.00,,2013-07-27 23:07:00,
2013-07-27 19:12:00,82.3,36.0,29.95,West,270,0.0,0.0,78,0.00,,,0.00,,2013-07-27 23:12:00,
2013-07-27 19:17:00,82.4,37.2,29.95,West,270,3.4,3.4,78,0.00,,,0.00,,2013-07-27 23:17:00,
2013-07-27 19:22:00,82.5,70.8,29.95,West,270,0.0,1.3,78,0.00,,,0.00,,2013-07-27 23:22:00,
2013-07-27 19:27:00,82.5,70.8,29.95,West,270,0.0,0.0,78,0.00,,,0.00,,2013-07-27 23:27:00,
2013-07-27 19:32:00,82.5,70.8,29.95,West,270,0.0,0.0,78,0.00,,,0.00,,2013-07-27 23:32:00,
2013-07-27 19:37:00,82.5,57.4,29.95,WSW,247,0.0,1.8,78,0.00,,,0.00,,2013-07-27 23:37:00,
2013-07-27 19:42:00,82.5,57.4,29.95,WSW,247,0.0,0.0,78,0.00,,,0.00,,2013-07-27 23:42:00,
2013-07-27 19:47:00,82.6,57.4,29.95,WSW,247,0.0,0.0,78,0.00,,,0.00,,2013-07-27 23:47:00,
2013-07-27 19:52:00,82.7,57.4,29.95,SSE,157,0.0,0.0,78,0.00,,,0.00,,2013-07-27 23:52:00,
2013-07-27 19:57:00,82.6,57.4,29.95,South,180,1.8,3.4,78,0.00,,,0.00,,2013-07-27 23:57:00,
2013-07-27 20:02:00,82.6,85.9,29.95,South,180,1.6,2.5,78,0.00,,,0.00,,2013-07-28 00:02:00,
2013-07-27 20:07:00,82.5,88.6,29.95,SSW,202,3.1,3.6,78,0.00,,,0.00,,2013-07-28 00:07:00,
2013-07-27 20:12:00,82.4,88.6,29.95,South,180,3.6,4.3,78,0.00,,,0.00,,2013-07-28 00:12:00,
2013-07-27 20:17:00,82.4,88.6,29.95,SSW,202,3.4,3.4,79,0.00,,,0.00,,2013-07-28 00:17:00,
2013-07-27 20:22:00,82.3,30.4,29.95,SSW,202,3.1,4.0,79,0.00,,,0.00,,2013-07-28 00:22:00,
2013-07-27 20:27:00,82.2,68.4,29.95,SSW,202,3.1,4.3,79,0.00,,,0.00,,2013-07-28 00:27:00,
2013-07-27 20:32:00,82.2,82.1,29.95,South,180,3.6,5.6,79,0.00,,,0.00,,2013-07-28 00:32:00,
2013-07-27 20:37:00,82.1,82.5,29.95,SSW,202,2.5,2.5,79,0.00,,,0.00,,2013-07-28 00:37:00,
2013-07-27 20:43:00,82.2,82.5,29.95,South,180,0.0,1.6,79,0.00,,,0.00,,2013-07-28 00:43:00,
2013-07-27 20:48:00,82.3,88.6,29.95,SSW,202,0.0,0.0,79,0.00,,,0.00,,2013-07-28 00:48:00,
2013-07-27 20:53:00,82.3,88.6,29.95,SSW,202,0.4,1.3,80,0.00,,,0.00,,2013-07-28 00:53:00,
2013-07-27 20:58:00,82.3,88.6,29.96,South,180,0.0,0.0,79,0.00,,,0.00,,2013-07-28 00:58:00,
2013-07-27 21:03:00,82.4,88.6,29.96,South,180,1.6,3.4,79,0.00,,,0.00,,2013-07-28 01:03:00,
2013-07-27 21:08:00,82.3,88.6,29.96,South,180,0.0,0.0,79,0.00,,,0.00,,2013-07-28 01:08:00,
2013-07-27 21:13:00,82.3,88.6,29.96,SW,225,0.0,0.2,80,0.00,,,0.00,,2013-07-28 01:13:00,
2013-07-27 21:18:00,82.3,88.6,29.96,SW,225,0.0,0.0,80,0.00,,,0.00,,2013-07-28 01:18:00,
2013-07-27 21:23:00,82.4,88.6,29.96,SSW,202,0.0,0.0,80,0.00,,,0.00,,2013-07-28 01:23:00,
2013-07-27 21:28:00,82.6,88.6,29.97,SSW,202,0.0,0.0,80,0.00,,,0.00,,2013-07-28 01:28:00,
2013-07-27 21:33:00,82.6,64.2,29.96,SE,135,2.7,3.1,79,0.00,,,0.00,,2013-07-28 01:33:00,
2013-07-27 21:38:00,82.5,86.5,29.96,SE,135,3.6,3.6,79,0.00,,,0.00,,2013-07-28 01:38:00,
2013-07-27 21:43:00,82.4,88.6,29.96,SE,135,5.4,5.4,80,0.00,,,0.00,,2013-07-28 01:43:00,
2013-07-27 21:48:00,82.3,88.6,29.96,SE,135,1.1,3.4,80,0.00,,,0.00,,2013-07-28 01:48:00,
2013-07-27 21:53:00,82.3,88.6,29.97,SE,135,1.8,2.7,80,0.00,,,0.00,,2013-07-28 01:53:00,
2013-07-27 21:58:00,82.3,88.6,29.97,SE,135,4.0,5.6,80,0.00,,,0.00,,2013-07-28 01:58:00,
2013-07-27 22:03:00,82.2,88.6,29.97,SSE,157,1.1,4.3,80,0.00,,,0.00,,2013-07-28 02:03:00,
2013-07-27 22:08:00,82.2,88.6,29.97,SE,135,0.0,0.0,80,0.00,,,0.00,,2013-07-28 02:08:00,
2013-07-27 22:13:00,82.3,88.6,29.97,SE,135,0.0,0.0,80,0.00,,,0.00,,2013-07-28 02:13:00,
2013-07-27 22:18:00,82.4,88.6,29.97,SE,135,0.0,0.0,80,0.00,,,0.00,,2013-07-28 02:18:00,
2013-07-27 22:23:00,82.3,88.6,29.98,SSE,157,2.9,3.4,80,0.00,,,0.00,,2013-07-28 02:23:00,
2013-07-27 22:28:00,82.3,88.6,29.98,SE,135,3.1,3.6,80,0.00,,,0.00,,2013-07-28 02:28:00,
2013-07-27 22:33:00,82.2,72.9,29.98,SE,135,1.1,3.4,80,0.00,,,0.00,,2013-07-28 02:33:00,
2013-07-27 22:38:00,82.2,72.9,29.98,ESE,112,0.0,0.0,80,0.00,,,0.00,,2013-07-28 02:38:00,
2013-07-27 22:43:00,82.3,72.9,29.98,SE,135,0.0,0.0,80,0.00,,,0.00,,2013-07-28 02:43:00,
2013-07-27 22:48:00,82.3,72.9,29.98,SE,135,0.0,1.1,80,0.00,,,0.00,,2013-07-28 02:48:00,
2013-07-27 22:53:00,82.2,72.9,29.98,SSE,157,0.0,0.0,80,0.00,,,0.00,,2013-07-28 02:53:00,
2013-07-27 22:58:00,82.2,72.9,29.98,SSE,157,0.0,2.7,80,0.00,,,0.00,,2013-07-28 02:58:00,
2013-07-27 23:03:00,82.2,72.9,29.98,SSE,157,0.4,0.7,80,0.00,,,0.00,,2013-07-28 03:03:00,
2013-07-27 23:08:00,82.1,72.9,29.98,SSE,157,0.0,1.1,80,0.00,,,0.00,,2013-07-28 03:08:00,
2013-07-27 23:13:00,82.2,72.9,29.99,South,180,0.7,0.7,80,0.00,,,0.00,,2013-07-28 03:13:00,
2013-07-27 23:18:00,82.3,84.3,29.98,South,180,0.0,0.0,79,0.00,,,0.00,,2013-07-28 03:18:00,
2013-07-27 23:23:00,82.3,84.3,29.98,SE,135,0.0,0.0,79,0.00,,,0.00,,2013-07-28 03:23:00,
2013-07-27 23:28:00,82.4,84.3,29.98,SSE,157,0.0,0.0,79,0.00,,,0.00,,2013-07-28 03:28:00,
2013-07-27 23:33:00,82.3,84.3,29.98,SE,135,0.0,0.0,79,0.00,,,0.00,,2013-07-28 03:33:00,
2013-07-27 23:38:00,82.4,88.6,29.98,SE,135,0.0,0.0,79,0.00,,,0.00,,2013-07-28 03:38:00,
2013-07-27 23:43:00,82.4,88.6,29.98,SE,135,0.0,0.0,79,0.00,,,0.00,,2013-07-28 03:43:00,
2013-07-27 23:48:00,82.5,88.6,29.98,SE,135,0.0,0.0,79,0.00,,,0.00,,2013-07-28 03:48:00,
2013-07-27 23:53:00,82.6,88.6,29.99,SE,135,0.0,0.0,79,0.00,,,0.00,,2013-07-28 03:53:00,
2013-07-27 23:58:00,82.7,88.6,29.99,SSE,157,0.0,0.0,79,0.00,,,0.00,,2013-07-28 03:58:00,